Time;durP1;ratioP1;P1;durP2;ratioP2;P2;SDS_P1;SDS_P2;PMS_P1;PMS_P2;Temp;Humidity;BMP_temperature;BMP_pressure;BME280_temperature;BME280_humidity;BME280_pressure;Samples;Min_cycle;Max_cycle;Signal;HPM_P1;HPM_P2
2024/03/28 00:00:06;;;;;;;;;;;11.70;99.90;;;;;;2069937;28;19921;-83
2024/03/28 00:01:09;;;;;;;;;;;11.70;99.90;;;;;;2073264;28;20092;-82
2024/03/28 00:02:10;;;;;;;;;;;11.70;99.90;;;;;;2069482;28;19952;-82
2024/03/28 00:03:10;;;;;;;;;;;11.70;99.90;;;;;;2060702;28;20438;-82
2024/03/28 00:04:11;;;;;;;;;;;11.70;99.90;;;;;;2060726;28;19928;-82
2024/03/28 00:05:11;;;;;;;;;;;11.70;99.90;;;;;;2078664;28;19921;-82
2024/03/28 00:06:13;;;;;;;;;;;11.70;99.90;;;;;;2067545;28;20296;-83
2024/03/28 00:07:13;;;;;;;;;;;11.60;99.90;;;;;;2068451;28;19963;-82
2024/03/28 00:08:14;;;;;;;;;;;11.60;99.90;;;;;;2070688;28;19917;-83
2024/03/28 00:09:15;;;;;;;;;;;11.60;99.90;;;;;;2057871;28;20372;-81
2024/03/28 00:10:15;;;;;;;;;;;11.60;99.90;;;;;;2059168;28;20352;-83
2024/03/28 00:11:16;;;;;;;;;;;11.60;99.90;;;;;;2067359;28;19921;-80
2024/03/28 00:12:16;;;;;;;;;;;11.60;99.90;;;;;;2068481;28;20348;-81
2024/03/28 00:13:17;;;;;;;;;;;11.50;99.90;;;;;;2067850;28;20554;-81
2024/03/28 00:14:18;;;;;;;;;;;11.50;99.90;;;;;;2065775;28;19964;-79
2024/03/28 00:15:18;;;;;;;;;;;11.40;99.90;;;;;;2074219;28;20279;-78
2024/03/28 00:16:19;;;;;;;;;;;11.40;99.90;;;;;;2066456;28;19992;-80
2024/03/28 00:17:19;;;;;;;;;;;11.40;99.90;;;;;;2071303;28;20309;-82
2024/03/28 00:18:20;;;;;;;;;;;11.40;99.90;;;;;;2077986;28;19924;-82
2024/03/28 00:19:20;;;;;;;;;;;11.40;99.90;;;;;;2072875;28;19924;-80
2024/03/28 00:20:21;;;;;;;;;;;11.40;99.90;;;;;;2061985;28;19914;-79
2024/03/28 00:21:22;;;;;;;;;;;11.30;99.90;;;;;;2070632;28;19917;-80
2024/03/28 00:22:22;;;;;;;;;;;11.30;99.90;;;;;;2078720;28;19917;-80
2024/03/28 00:23:23;;;;;;;;;;;11.40;99.90;;;;;;2080276;28;19920;-79
2024/03/28 00:24:23;;;;;;;;;;;11.40;99.90;;;;;;2069354;28;20368;-82
2024/03/28 00:25:24;;;;;;;;;;;11.30;99.90;;;;;;2072708;28;19917;-80
2024/03/28 00:26:24;;;;;;;;;;;11.30;99.90;;;;;;2062039;28;19970;-80
2024/03/28 00:27:24;;;;;;;;;;;11.40;99.90;;;;;;2062127;28;20347;-80
2024/03/28 00:28:25;;;;;;;;;;;11.40;99.90;;;;;;2065723;28;20003;-80
2024/03/28 00:29:26;;;;;;;;;;;11.40;99.90;;;;;;2068561;28;20182;-80
2024/03/28 00:30:26;;;;;;;;;;;11.40;99.90;;;;;;2077613;28;19917;-80
2024/03/28 00:31:26;;;;;;;;;;;11.40;99.90;;;;;;2074055;28;19971;-79
2024/03/28 00:32:27;;;;;;;;;;;11.40;99.90;;;;;;2077870;28;19939;-79
2024/03/28 00:33:27;;;;;;;;;;;11.40;99.90;;;;;;2076848;28;19916;-80
2024/03/28 00:34:28;;;;;;;;;;;11.40;99.90;;;;;;2076203;28;19963;-79
2024/03/28 00:35:28;;;;;;;;;;;11.40;99.90;;;;;;2068050;28;19921;-79
2024/03/28 00:36:29;;;;;;;;;;;11.40;99.90;;;;;;2072200;28;19914;-81
2024/03/28 00:37:29;;;;;;;;;;;11.50;99.90;;;;;;2069844;28;19929;-80
2024/03/28 00:38:30;;;;;;;;;;;11.40;99.90;;;;;;2070275;28;20623;-79
2024/03/28 00:39:30;;;;;;;;;;;11.50;99.90;;;;;;2069709;28;19956;-79
2024/03/28 00:40:31;;;;;;;;;;;11.40;99.90;;;;;;2071226;28;19924;-78
2024/03/28 00:41:32;;;;;;;;;;;11.40;99.90;;;;;;2068085;28;19960;-80
2024/03/28 00:42:33;;;;;;;;;;;11.30;99.90;;;;;;2072349;28;19914;-80
2024/03/28 00:43:35;;;;;;;;;;;11.30;99.90;;;;;;2069981;28;19944;-79
2024/03/28 00:44:35;;;;;;;;;;;11.30;99.90;;;;;;2070387;28;19920;-80
2024/03/28 00:45:36;;;;;;;;;;;11.20;99.90;;;;;;2068969;28;19914;-80
2024/03/28 00:46:38;;;;;;;;;;;11.30;99.90;;;;;;2062894;28;19913;-81
2024/03/28 00:47:38;;;;;;;;;;;11.30;99.90;;;;;;2060109;28;20083;-79
2024/03/28 00:48:39;;;;;;;;;;;11.30;99.90;;;;;;2078015;28;19988;-81
2024/03/28 00:49:39;;;;;;;;;;;11.40;99.90;;;;;;2069005;28;19922;-80
2024/03/28 00:50:40;;;;;;;;;;;11.40;99.90;;;;;;2073039;28;19921;-79
2024/03/28 00:51:40;;;;;;;;;;;11.40;99.90;;;;;;2072023;28;20390;-80
2024/03/28 00:52:41;;;;;;;;;;;11.50;99.90;;;;;;2070410;28;19909;-80
2024/03/28 00:53:41;;;;;;;;;;;11.50;99.90;;;;;;2071055;28;20578;-80
2024/03/28 00:54:41;;;;;;;;;;;11.50;99.90;;;;;;2061313;28;19949;-80
2024/03/28 00:55:42;;;;;;;;;;;11.50;99.90;;;;;;2060962;28;20004;-81
2024/03/28 00:56:42;;;;;;;;;;;11.40;99.90;;;;;;2064280;28;19910;-79
2024/03/28 00:57:43;;;;;;;;;;;11.40;99.90;;;;;;2057193;28;19921;-79
2024/03/28 00:58:43;;;;;;;;;;;11.40;99.90;;;;;;2064972;28;19918;-80
2024/03/28 00:59:44;;;;;;;;;;;11.50;99.90;;;;;;2057517;28;20131;-81
2024/03/28 01:00:45;;;;;;;;;;;11.40;99.90;;;;;;2064615;28;19914;-80
2024/03/28 01:01:46;;;;;;;;;;;11.40;99.90;;;;;;2069442;28;19948;-79
2024/03/28 01:02:47;;;;;;;;;;;11.40;99.90;;;;;;2078329;28;19972;-79
2024/03/28 01:03:47;;;;;;;;;;;11.40;99.90;;;;;;2070648;28;19917;-79
2024/03/28 01:04:49;;;;;;;;;;;11.40;99.90;;;;;;2068597;28;19913;-79
2024/03/28 01:05:56;;;;;;;;;;;11.30;99.90;;;;;;2061018;28;19914;-80
2024/03/28 01:06:56;;;;;;;;;;;11.40;99.90;;;;;;2070592;28;19914;-80
2024/03/28 01:07:57;;;;;;;;;;;11.30;99.90;;;;;;2077907;28;19964;-81
2024/03/28 01:08:57;;;;;;;;;;;11.30;99.90;;;;;;2070086;28;20442;-81
2024/03/28 01:09:58;;;;;;;;;;;11.30;99.90;;;;;;2068955;28;19913;-81
2024/03/28 01:10:58;;;;;;;;;;;11.30;99.90;;;;;;2076183;28;19920;-81
2024/03/28 01:11:59;;;;;;;;;;;11.30;99.90;;;;;;2070574;28;19913;-82
2024/03/28 01:12:59;;;;;;;;;;;11.30;99.90;;;;;;2070180;28;20025;-81
2024/03/28 01:14:00;;;;;;;;;;;11.30;99.90;;;;;;2069107;28;19941;-81
2024/03/28 01:15:00;;;;;;;;;;;11.30;99.90;;;;;;2067550;28;20403;-80
2024/03/28 01:16:01;;;;;;;;;;;11.30;99.90;;;;;;2067993;28;20336;-81
2024/03/28 01:17:01;;;;;;;;;;;11.30;99.90;;;;;;2076262;28;19921;-79
2024/03/28 01:18:02;;;;;;;;;;;11.30;99.90;;;;;;2067736;28;19968;-81
2024/03/28 01:19:02;;;;;;;;;;;11.30;99.90;;;;;;2062296;28;20370;-80
2024/03/28 01:20:03;;;;;;;;;;;11.30;99.90;;;;;;2069279;28;20422;-79
2024/03/28 01:21:03;;;;;;;;;;;11.20;99.90;;;;;;2072668;28;19921;-80
2024/03/28 01:22:04;;;;;;;;;;;11.20;99.90;;;;;;2067626;28;20273;-80
2024/03/28 01:23:04;;;;;;;;;;;11.20;99.90;;;;;;2067507;28;19929;-79
2024/03/28 01:24:05;;;;;;;;;;;11.20;99.90;;;;;;2062390;28;19917;-81
2024/03/28 01:25:06;;;;;;;;;;;11.20;99.90;;;;;;2060725;28;19933;-79
2024/03/28 01:26:07;;;;;;;;;;;11.20;99.90;;;;;;2066474;28;20550;-79
2024/03/28 01:27:07;;;;;;;;;;;11.10;99.90;;;;;;2067608;28;19929;-81
2024/03/28 01:28:08;;;;;;;;;;;11.10;99.90;;;;;;2076141;28;19928;-79
2024/03/28 01:29:08;;;;;;;;;;;11.10;99.90;;;;;;2059508;28;19918;-80
2024/03/28 01:30:09;;;;;;;;;;;11.10;99.90;;;;;;2058438;28;19921;-82
2024/03/28 01:31:09;;;;;;;;;;;11.10;99.90;;;;;;2057974;28;19914;-82
2024/03/28 01:32:10;;;;;;;;;;;11.10;99.90;;;;;;2059751;28;19981;-82
2024/03/28 01:33:10;;;;;;;;;;;11.10;99.90;;;;;;2067498;28;19992;-81
2024/03/28 01:34:11;;;;;;;;;;;11.10;99.90;;;;;;2076767;28;19976;-80
2024/03/28 01:35:11;;;;;;;;;;;11.10;99.90;;;;;;2055697;28;20312;-79
2024/03/28 01:36:12;;;;;;;;;;;11.10;99.90;;;;;;2055786;28;19922;-80
2024/03/28 01:37:13;;;;;;;;;;;11.10;99.90;;;;;;2068037;28;19921;-81
2024/03/28 01:38:13;;;;;;;;;;;11.10;99.90;;;;;;2068804;28;19945;-81
2024/03/28 01:39:13;;;;;;;;;;;11.10;99.90;;;;;;2063841;28;19921;-80
2024/03/28 01:40:14;;;;;;;;;;;11.20;99.90;;;;;;2059483;28;20376;-80
2024/03/28 01:41:14;;;;;;;;;;;11.20;99.90;;;;;;2074026;28;20014;-79
2024/03/28 01:42:15;;;;;;;;;;;11.30;99.90;;;;;;2067316;28;20218;-82
2024/03/28 01:43:15;;;;;;;;;;;11.20;99.90;;;;;;2068040;28;19913;-81
2024/03/28 01:44:16;;;;;;;;;;;11.20;99.90;;;;;;2077238;28;20350;-80
2024/03/28 01:45:17;;;;;;;;;;;11.30;99.90;;;;;;2064266;28;19917;-80
2024/03/28 01:46:17;;;;;;;;;;;11.30;99.90;;;;;;2052599;28;20024;-79
2024/03/28 01:47:18;;;;;;;;;;;11.40;99.90;;;;;;2061467;28;19920;-81
2024/03/28 01:48:18;;;;;;;;;;;11.40;99.90;;;;;;2074422;28;20024;-81
2024/03/28 01:49:19;;;;;;;;;;;11.40;99.90;;;;;;2082810;28;20044;-81
2024/03/28 01:50:19;;;;;;;;;;;11.50;99.90;;;;;;2070393;28;19949;-82
2024/03/28 01:51:20;;;;;;;;;;;11.50;99.90;;;;;;2070284;28;19918;-82
2024/03/28 01:52:21;;;;;;;;;;;11.50;99.90;;;;;;2073957;28;19967;-82
2024/03/28 01:53:21;;;;;;;;;;;11.50;99.90;;;;;;2076427;28;19914;-82
2024/03/28 01:54:22;;;;;;;;;;;11.50;99.90;;;;;;2082094;28;19988;-81
2024/03/28 01:55:22;;;;;;;;;;;11.40;99.90;;;;;;2082603;28;19975;-82
2024/03/28 01:56:23;;;;;;;;;;;11.40;99.90;;;;;;2074247;28;20633;-83
2024/03/28 01:57:24;;;;;;;;;;;11.50;99.90;;;;;;2074007;28;19955;-82
2024/03/28 01:58:25;;;;;;;;;;;11.40;99.90;;;;;;2082389;28;19917;-81
2024/03/28 01:59:25;;;;;;;;;;;11.50;99.90;;;;;;2081021;28;19917;-82
2024/03/28 02:00:26;;;;;;;;;;;11.50;99.90;;;;;;2079967;28;20003;-82
2024/03/28 02:01:28;;;;;;;;;;;11.50;99.90;;;;;;2062465;28;20071;-82
2024/03/28 02:02:29;;;;;;;;;;;11.60;99.90;;;;;;2061791;28;19922;-82
2024/03/28 02:03:29;;;;;;;;;;;11.60;99.90;;;;;;2061418;28;20011;-82
2024/03/28 02:04:30;;;;;;;;;;;11.60;99.90;;;;;;2062061;28;19960;-80
2024/03/28 02:05:31;;;;;;;;;;;11.60;99.90;;;;;;2069682;28;20343;-81
2024/03/28 02:06:32;;;;;;;;;;;11.70;99.90;;;;;;2078219;28;19913;-80
2024/03/28 02:07:33;;;;;;;;;;;11.70;99.90;;;;;;2080139;28;19917;-82
2024/03/28 02:08:33;;;;;;;;;;;11.70;99.90;;;;;;2069538;28;20461;-81
2024/03/28 02:09:34;;;;;;;;;;;11.80;99.90;;;;;;2061618;28;19957;-79
2024/03/28 02:10:34;;;;;;;;;;;11.80;99.90;;;;;;2069125;28;19921;-80
2024/03/28 02:11:35;;;;;;;;;;;11.80;99.90;;;;;;2077568;28;19913;-81
2024/03/28 02:12:35;;;;;;;;;;;11.70;99.90;;;;;;2074887;28;19913;-80
2024/03/28 02:13:36;;;;;;;;;;;11.80;99.90;;;;;;2066274;28;19921;-82
2024/03/28 02:14:36;;;;;;;;;;;11.80;99.90;;;;;;2067942;28;19921;-79
2024/03/28 02:15:38;;;;;;;;;;;11.80;99.90;;;;;;2076630;28;19917;-80
2024/03/28 02:16:38;;;;;;;;;;;11.70;99.90;;;;;;2067572;28;19925;-79
2024/03/28 02:17:51;;;;;;;;;;;11.70;99.90;;;;;;2067465;28;19913;-81
2024/03/28 02:18:55;;;;;;;;;;;11.80;99.90;;;;;;2072764;28;19913;-80
2024/03/28 02:19:55;;;;;;;;;;;11.80;99.90;;;;;;2077052;28;20414;-80
2024/03/28 02:20:56;;;;;;;;;;;11.80;99.90;;;;;;2067307;28;19925;-79
2024/03/28 02:21:58;;;;;;;;;;;11.80;99.90;;;;;;2059032;28;19958;-78
2024/03/28 02:22:58;;;;;;;;;;;11.80;99.90;;;;;;2067488;28;20004;-79
2024/03/28 02:23:59;;;;;;;;;;;11.80;99.90;;;;;;2059172;28;19920;-78
2024/03/28 02:24:59;;;;;;;;;;;11.80;99.90;;;;;;2067369;28;19918;-80
2024/03/28 02:26:00;;;;;;;;;;;11.80;99.90;;;;;;2075985;28;19960;-80
2024/03/28 02:27:00;;;;;;;;;;;11.80;99.90;;;;;;2068631;28;19929;-79
2024/03/28 02:28:01;;;;;;;;;;;11.80;99.90;;;;;;2070049;28;19914;-80
2024/03/28 02:29:01;;;;;;;;;;;11.80;99.90;;;;;;2076524;28;20366;-83
2024/03/28 02:30:07;;;;;;;;;;;11.80;99.90;;;;;;2067888;28;20411;-81
2024/03/28 02:31:07;;;;;;;;;;;11.90;99.90;;;;;;2064489;28;19918;-80
2024/03/28 02:32:07;;;;;;;;;;;11.90;99.90;;;;;;2077756;28;20004;-82
2024/03/28 02:33:08;;;;;;;;;;;11.90;99.90;;;;;;2077995;28;20110;-80
2024/03/28 02:34:08;;;;;;;;;;;11.90;99.90;;;;;;2067630;28;20454;-81
2024/03/28 02:35:09;;;;;;;;;;;12.00;99.90;;;;;;2064862;28;19972;-79
2024/03/28 02:36:09;;;;;;;;;;;12.00;99.90;;;;;;2068692;28;19964;-81
2024/03/28 02:37:10;;;;;;;;;;;11.90;99.90;;;;;;2077702;28;19917;-80
2024/03/28 02:38:10;;;;;;;;;;;11.90;99.90;;;;;;2078057;28;19924;-79
2024/03/28 02:39:11;;;;;;;;;;;11.90;99.90;;;;;;2077717;28;19992;-80
2024/03/28 02:40:12;;;;;;;;;;;11.90;99.90;;;;;;2077861;28;19968;-78
2024/03/28 02:41:12;;;;;;;;;;;11.90;99.90;;;;;;2077415;28;20294;-80
2024/03/28 02:42:12;;;;;;;;;;;11.80;99.90;;;;;;2070931;28;19918;-80
2024/03/28 02:43:13;;;;;;;;;;;11.80;99.90;;;;;;2069689;28;19921;-79
2024/03/28 02:44:13;;;;;;;;;;;11.80;99.90;;;;;;2068740;28;20299;-78
2024/03/28 02:45:14;;;;;;;;;;;11.80;99.90;;;;;;2068455;28;19918;-80
2024/03/28 02:46:14;;;;;;;;;;;11.70;99.90;;;;;;2063124;28;19924;-82
2024/03/28 02:47:15;;;;;;;;;;;11.70;99.90;;;;;;2062061;28;19948;-79
2024/03/28 02:48:16;;;;;;;;;;;11.70;99.90;;;;;;2060588;28;20665;-80
2024/03/28 02:49:16;;;;;;;;;;;11.60;99.90;;;;;;2060218;28;19921;-78
2024/03/28 02:50:17;;;;;;;;;;;11.60;99.90;;;;;;2069132;28;19969;-80
2024/03/28 02:51:17;;;;;;;;;;;11.50;99.90;;;;;;2070030;28;20594;-79
2024/03/28 02:52:18;;;;;;;;;;;11.50;99.90;;;;;;2068440;28;19924;-80
2024/03/28 02:53:18;;;;;;;;;;;11.40;99.90;;;;;;2077244;28;19917;-81
2024/03/28 02:54:18;;;;;;;;;;;11.40;99.90;;;;;;2060293;28;19918;-80
2024/03/28 02:55:19;;;;;;;;;;;11.40;99.90;;;;;;2061354;28;19949;-81
2024/03/28 02:56:20;;;;;;;;;;;11.40;99.90;;;;;;2068469;28;19920;-79
2024/03/28 02:57:21;;;;;;;;;;;11.40;99.90;;;;;;2068506;28;20430;-79
2024/03/28 02:58:22;;;;;;;;;;;11.30;99.90;;;;;;2077555;28;19976;-80
2024/03/28 02:59:22;;;;;;;;;;;11.20;99.90;;;;;;2080602;28;20405;-81
2024/03/28 03:00:23;;;;;;;;;;;11.20;99.90;;;;;;2077815;28;19917;-80
2024/03/28 03:01:23;;;;;;;;;;;11.10;99.90;;;;;;2077413;28;20405;-81
2024/03/28 03:02:24;;;;;;;;;;;11.10;99.90;;;;;;2077073;28;19917;-80
2024/03/28 03:03:24;;;;;;;;;;;11.00;99.90;;;;;;2068198;28;20422;-78
2024/03/28 03:04:25;;;;;;;;;;;10.90;99.90;;;;;;2068087;28;19918;-79
2024/03/28 03:05:25;;;;;;;;;;;10.90;99.90;;;;;;2080816;28;19923;-78
2024/03/28 03:06:28;;;;;;;;;;;10.80;99.90;;;;;;2077500;28;19917;-77
2024/03/28 03:07:28;;;;;;;;;;;10.80;99.90;;;;;;2067062;28;19914;-79
2024/03/28 03:08:29;;;;;;;;;;;10.80;99.90;;;;;;2068587;28;19960;-79
2024/03/28 03:09:30;;;;;;;;;;;10.70;99.90;;;;;;2077040;28;19913;-80
2024/03/28 03:10:30;;;;;;;;;;;10.70;99.90;;;;;;2077385;28;19917;-79
2024/03/28 03:11:31;;;;;;;;;;;10.70;99.90;;;;;;2064264;28;19940;-78
2024/03/28 03:12:32;;;;;;;;;;;10.60;99.90;;;;;;2068443;28;19914;-78
2024/03/28 03:13:32;;;;;;;;;;;10.50;99.90;;;;;;2070020;28;20394;-80
2024/03/28 03:14:33;;;;;;;;;;;10.40;99.90;;;;;;2068289;28;19965;-78
2024/03/28 03:15:33;;;;;;;;;;;10.30;99.90;;;;;;2077256;28;19953;-79
2024/03/28 03:16:34;;;;;;;;;;;10.30;99.90;;;;;;2076676;28;20422;-79
2024/03/28 03:17:36;;;;;;;;;;;10.20;99.90;;;;;;2076884;28;19917;-81
2024/03/28 03:18:37;;;;;;;;;;;10.10;99.90;;;;;;2073017;28;19916;-79
2024/03/28 03:19:37;;;;;;;;;;;10.00;99.90;;;;;;2077536;28;19932;-78
2024/03/28 03:20:43;;;;;;;;;;;10.00;99.90;;;;;;2068134;28;20040;-80
2024/03/28 03:21:46;;;;;;;;;;;10.00;99.90;;;;;;2068861;28;20008;-79
2024/03/28 03:22:51;;;;;;;;;;;9.90;99.90;;;;;;2076976;28;19925;-80
2024/03/28 03:24:00;;;;;;;;;;;9.90;99.90;;;;;;2077420;28;20378;-79
2024/03/28 03:25:10;;;;;;;;;;;9.80;99.90;;;;;;2077409;28;19920;-79
2024/03/28 03:26:20;;;;;;;;;;;9.80;99.90;;;;;;2064334;28;20366;-79
2024/03/28 03:27:20;;;;;;;;;;;9.80;99.90;;;;;;2069254;28;20206;-79
2024/03/28 03:35:13;;;;;;;;;;;9.60;99.90;;;;;;2073354;28;19917;-80
2024/03/28 03:36:14;;;;;;;;;;;9.60;99.90;;;;;;2068191;28;20300;-79
2024/03/28 03:37:21;;;;;;;;;;;9.60;99.90;;;;;;2067904;28;19960;-78
2024/03/28 03:38:21;;;;;;;;;;;9.60;99.90;;;;;;2060068;28;20339;-80
2024/03/28 03:39:23;;;;;;;;;;;9.50;99.90;;;;;;2061150;28;19917;-81
2024/03/28 03:40:24;;;;;;;;;;;9.50;99.90;;;;;;2068201;28;20395;-80
2024/03/28 03:41:24;;;;;;;;;;;9.40;99.90;;;;;;2076990;28;19985;-79
2024/03/28 03:42:25;;;;;;;;;;;9.40;99.90;;;;;;2068846;28;19937;-79
2024/03/28 03:43:25;;;;;;;;;;;9.30;99.90;;;;;;2070296;28;19917;-78
2024/03/28 03:44:26;;;;;;;;;;;9.30;99.90;;;;;;2059689;28;19924;-78
2024/03/28 03:45:26;;;;;;;;;;;9.30;99.90;;;;;;2059871;28;19961;-77
2024/03/28 03:46:27;;;;;;;;;;;9.20;99.90;;;;;;2071968;28;20308;-78
2024/03/28 03:47:27;;;;;;;;;;;9.20;99.90;;;;;;2069963;28;20012;-80
2024/03/28 03:48:28;;;;;;;;;;;9.20;99.90;;;;;;2068530;28;20465;-80
2024/03/28 03:49:28;;;;;;;;;;;9.10;99.90;;;;;;2067753;28;19937;-79
2024/03/28 03:50:29;;;;;;;;;;;9.10;99.90;;;;;;2076221;28;19913;-78
2024/03/28 03:51:29;;;;;;;;;;;9.10;99.90;;;;;;2067751;28;20152;-80
2024/03/28 03:52:29;;;;;;;;;;;9.00;99.90;;;;;;2068004;28;19921;-82
2024/03/28 03:53:30;;;;;;;;;;;9.00;99.90;;;;;;2068230;28;20331;-80
2024/03/28 03:54:30;;;;;;;;;;;9.00;99.90;;;;;;2059808;28;19917;-79
2024/03/28 03:55:31;;;;;;;;;;;9.00;99.90;;;;;;2060009;28;19924;-79
2024/03/28 03:56:31;;;;;;;;;;;8.90;99.90;;;;;;2067987;28;19917;-81
2024/03/28 03:57:32;;;;;;;;;;;8.90;99.90;;;;;;2060157;28;19922;-80
2024/03/28 03:58:32;;;;;;;;;;;8.90;99.90;;;;;;2071888;28;19913;-80
2024/03/28 03:59:33;;;;;;;;;;;8.90;99.90;;;;;;2077118;28;19924;-82
2024/03/28 04:00:33;;;;;;;;;;;8.80;99.90;;;;;;2059890;28;19988;-80
2024/03/28 04:01:34;;;;;;;;;;;8.80;99.90;;;;;;2060087;28;19917;-78
2024/03/28 04:02:34;;;;;;;;;;;8.80;99.90;;;;;;2079516;28;19917;-79
2024/03/28 04:03:35;;;;;;;;;;;8.80;99.90;;;;;;2077773;28;20399;-80
2024/03/28 04:04:35;;;;;;;;;;;8.70;99.90;;;;;;2077196;28;20242;-82
2024/03/28 04:05:36;;;;;;;;;;;8.70;99.90;;;;;;2076724;28;19940;-79
2024/03/28 04:06:36;;;;;;;;;;;8.70;99.90;;;;;;2068409;28;20463;-79
2024/03/28 04:07:37;;;;;;;;;;;8.60;99.90;;;;;;2067798;28;19918;-79
2024/03/28 04:08:37;;;;;;;;;;;8.70;99.90;;;;;;2077482;28;19917;-78
2024/03/28 04:09:38;;;;;;;;;;;8.60;99.90;;;;;;2079149;28;19972;-80
2024/03/28 04:10:38;;;;;;;;;;;8.60;99.90;;;;;;2078888;28;19917;-78
2024/03/28 04:11:39;;;;;;;;;;;8.60;99.90;;;;;;2069823;28;20283;-79
2024/03/28 04:12:40;;;;;;;;;;;8.50;99.90;;;;;;2069911;28;19920;-79
2024/03/28 04:13:40;;;;;;;;;;;8.50;99.90;;;;;;2061842;28;19956;-78
2024/03/28 04:14:41;;;;;;;;;;;8.50;99.90;;;;;;2069998;28;20465;-78
2024/03/28 04:15:41;;;;;;;;;;;8.50;99.90;;;;;;2061574;28;19922;-77
2024/03/28 04:16:42;;;;;;;;;;;8.40;99.90;;;;;;2061809;28;20387;-80
2024/03/28 04:17:42;;;;;;;;;;;8.40;99.90;;;;;;2068337;28;19914;-80
2024/03/28 04:18:43;;;;;;;;;;;8.40;99.90;;;;;;2078628;28;20387;-80
2024/03/28 04:19:43;;;;;;;;;;;8.40;99.90;;;;;;2078701;28;19917;-78
2024/03/28 04:20:43;;;;;;;;;;;8.40;99.90;;;;;;2081807;28;19923;-80
2024/03/28 04:21:45;;;;;;;;;;;8.40;99.90;;;;;;2080959;28;19927;-79
2024/03/28 04:22:46;;;;;;;;;;;8.30;99.90;;;;;;2071224;28;19917;-79
2024/03/28 04:23:46;;;;;;;;;;;8.40;99.90;;;;;;2070382;28;19917;-79
2024/03/28 04:24:47;;;;;;;;;;;8.40;99.90;;;;;;2070440;28;19932;-78
2024/03/28 04:25:54;;;;;;;;;;;8.40;99.90;;;;;;2071541;28;19985;-78
2024/03/28 04:26:54;;;;;;;;;;;8.40;99.90;;;;;;2069180;28;19924;-78
2024/03/28 04:27:54;;;;;;;;;;;8.40;99.90;;;;;;2074333;28;20004;-79
2024/03/28 04:28:55;;;;;;;;;;;8.40;99.90;;;;;;2064706;28;19920;-80
2024/03/28 04:29:55;;;;;;;;;;;8.30;99.90;;;;;;2076577;28;20431;-80
2024/03/28 04:30:56;;;;;;;;;;;8.30;99.90;;;;;;2077124;28;19921;-78
2024/03/28 04:31:57;;;;;;;;;;;8.30;99.90;;;;;;2065173;28;19924;-78
2024/03/28 04:32:57;;;;;;;;;;;8.30;99.90;;;;;;2069474;28;19948;-76
2024/03/28 04:33:58;;;;;;;;;;;8.30;99.90;;;;;;2077745;28;19971;-76
2024/03/28 04:34:58;;;;;;;;;;;8.30;99.90;;;;;;2077727;28;19917;-80
2024/03/28 04:35:59;;;;;;;;;;;8.30;99.90;;;;;;2069413;28;19917;-79
2024/03/28 04:36:59;;;;;;;;;;;8.30;99.90;;;;;;2069470;28;19975;-79
2024/03/28 04:37:59;;;;;;;;;;;8.30;99.90;;;;;;2077509;28;19935;-79
2024/03/28 04:39:00;;;;;;;;;;;8.30;99.90;;;;;;2076483;28;19924;-78
2024/03/28 04:40:02;;;;;;;;;;;8.40;99.90;;;;;;2076612;28;19921;-73
2024/03/28 04:41:03;;;;;;;;;;;8.40;99.90;;;;;;2080418;28;19924;-73
2024/03/28 04:42:03;;;;;;;;;;;8.40;99.90;;;;;;2076345;28;19924;-73
2024/03/28 04:43:03;;;;;;;;;;;8.30;99.90;;;;;;2075655;28;20362;-73
2024/03/28 04:44:04;;;;;;;;;;;8.30;99.90;;;;;;2067691;28;19925;-73
2024/03/28 04:45:05;;;;;;;;;;;8.30;99.90;;;;;;2066169;28;19917;-73
2024/03/28 04:46:05;;;;;;;;;;;8.30;99.90;;;;;;2072381;28;19980;-73
2024/03/28 04:47:07;;;;;;;;;;;8.30;99.90;;;;;;2076354;28;19920;-73
2024/03/28 04:48:07;;;;;;;;;;;8.30;99.90;;;;;;2066766;28;20419;-73
2024/03/28 04:49:07;;;;;;;;;;;8.20;99.90;;;;;;2067454;28;19965;-73
2024/03/28 04:50:09;;;;;;;;;;;8.30;99.90;;;;;;2067006;28;19917;-74
2024/03/28 04:51:09;;;;;;;;;;;8.20;99.90;;;;;;2067297;28;19972;-73
2024/03/28 04:52:10;;;;;;;;;;;8.20;99.90;;;;;;2076224;28;20258;-73
2024/03/28 04:53:10;;;;;;;;;;;8.30;99.90;;;;;;2067055;28;19922;-74
2024/03/28 04:54:11;;;;;;;;;;;8.30;99.90;;;;;;2067182;28;19913;-73
2024/03/28 04:55:12;;;;;;;;;;;8.30;99.90;;;;;;2068104;28;20260;-74
2024/03/28 04:56:12;;;;;;;;;;;8.30;99.90;;;;;;2071438;28;20221;-74
2024/03/28 04:57:13;;;;;;;;;;;8.30;99.90;;;;;;2077990;28;20007;-75
2024/03/28 04:58:13;;;;;;;;;;;8.30;99.90;;;;;;2067600;28;19952;-72
2024/03/28 04:59:14;;;;;;;;;;;8.30;99.90;;;;;;2067144;28;19921;-73
2024/03/28 05:00:14;;;;;;;;;;;8.40;99.90;;;;;;2071556;28;19917;-74
2024/03/28 05:01:15;;;;;;;;;;;8.30;99.90;;;;;;2067500;28;20311;-73
2024/03/28 05:02:15;;;;;;;;;;;8.30;99.90;;;;;;2067182;28;19917;-74
2024/03/28 05:03:16;;;;;;;;;;;8.40;99.90;;;;;;2067266;28;20431;-74
2024/03/28 05:04:17;;;;;;;;;;;8.40;99.90;;;;;;2067185;28;19913;-73
2024/03/28 05:05:18;;;;;;;;;;;8.30;99.90;;;;;;2060076;28;19917;-73
2024/03/28 05:06:20;;;;;;;;;;;8.30;99.90;;;;;;2060684;28;19913;-73
2024/03/28 05:07:21;;;;;;;;;;;8.30;99.90;;;;;;2067269;28;19917;-72
2024/03/28 05:08:21;;;;;;;;;;;8.30;99.90;;;;;;2076306;28;19921;-72
2024/03/28 05:09:22;;;;;;;;;;;8.30;99.90;;;;;;2075707;28;19917;-73
2024/03/28 05:10:22;;;;;;;;;;;8.30;99.90;;;;;;2067037;28;20617;-72
2024/03/28 05:11:23;;;;;;;;;;;8.30;99.90;;;;;;2067022;28;20076;-72
2024/03/28 05:12:24;;;;;;;;;;;8.30;99.90;;;;;;2075922;28;19921;-73
2024/03/28 05:13:24;;;;;;;;;;;8.30;99.90;;;;;;2066843;28;20355;-73
2024/03/28 05:14:24;;;;;;;;;;;8.30;99.90;;;;;;2059045;28;19922;-74
2024/03/28 05:15:25;;;;;;;;;;;8.30;99.90;;;;;;2066971;28;19925;-73
2024/03/28 05:16:26;;;;;;;;;;;8.30;99.90;;;;;;2058816;28;20449;-74
2024/03/28 05:17:26;;;;;;;;;;;8.20;99.90;;;;;;2059016;28;20192;-73
2024/03/28 05:18:27;;;;;;;;;;;8.20;99.90;;;;;;2067119;28;20000;-73
2024/03/28 05:19:27;;;;;;;;;;;8.20;99.90;;;;;;2071058;28;19964;-74
2024/03/28 05:20:28;;;;;;;;;;;8.10;99.90;;;;;;2077869;28;20295;-74
2024/03/28 05:21:28;;;;;;;;;;;8.10;99.90;;;;;;2076879;28;19917;-74
2024/03/28 05:22:29;;;;;;;;;;;8.10;99.90;;;;;;2075876;28;19917;-74
2024/03/28 05:23:30;;;;;;;;;;;8.10;99.90;;;;;;2075611;28;19956;-73
2024/03/28 05:24:33;;;;;;;;;;;8.10;99.90;;;;;;2075977;28;19921;-76
2024/03/28 05:25:34;;;;;;;;;;;8.10;99.90;;;;;;2059789;28;19913;-74
2024/03/28 05:26:35;;;;;;;;;;;8.10;99.90;;;;;;2059929;28;20443;-74
2024/03/28 05:27:35;;;;;;;;;;;8.10;99.90;;;;;;2075944;28;19924;-74
2024/03/28 05:28:36;;;;;;;;;;;8.10;99.90;;;;;;2075660;28;20346;-74
2024/03/28 05:29:37;;;;;;;;;;;8.10;99.90;;;;;;2075800;28;20024;-75
2024/03/28 05:30:37;;;;;;;;;;;8.10;99.90;;;;;;2075504;28;19928;-74
2024/03/28 05:31:37;;;;;;;;;;;8.10;99.90;;;;;;2071771;28;19921;-75
2024/03/28 05:32:38;;;;;;;;;;;8.10;99.90;;;;;;2075136;28;20280;-75
2024/03/28 05:33:38;;;;;;;;;;;8.10;99.90;;;;;;2076074;28;19920;-76
2024/03/28 05:34:39;;;;;;;;;;;8.00;99.90;;;;;;2075709;28;20146;-75
2024/03/28 05:35:40;;;;;;;;;;;8.00;99.90;;;;;;2075560;28;20334;-74
2024/03/28 05:36:41;;;;;;;;;;;8.00;99.90;;;;;;2075787;28;20371;-75
2024/03/28 05:37:41;;;;;;;;;;;8.00;99.90;;;;;;2063058;28;19945;-76
2024/03/28 05:38:42;;;;;;;;;;;8.00;99.90;;;;;;2067296;28;19921;-76
2024/03/28 05:39:42;;;;;;;;;;;8.00;99.90;;;;;;2070680;28;19939;-75
2024/03/28 05:40:43;;;;;;;;;;;8.00;99.90;;;;;;2076379;28;20282;-75
2024/03/28 05:41:44;;;;;;;;;;;8.00;99.90;;;;;;2077697;28;20004;-75
2024/03/28 05:42:44;;;;;;;;;;;8.00;99.90;;;;;;2075894;28;19923;-75
2024/03/28 05:43:45;;;;;;;;;;;8.10;99.90;;;;;;2066829;28;19917;-75
2024/03/28 05:44:45;;;;;;;;;;;8.10;99.90;;;;;;2058559;28;19917;-74
2024/03/28 05:45:46;;;;;;;;;;;8.10;99.90;;;;;;2067205;28;20421;-76
2024/03/28 05:46:46;;;;;;;;;;;8.10;99.90;;;;;;2066687;28;19967;-75
2024/03/28 05:47:47;;;;;;;;;;;8.10;99.90;;;;;;2075830;28;19955;-74
2024/03/28 05:48:48;;;;;;;;;;;8.10;99.90;;;;;;2075507;28;20447;-75
2024/03/28 05:49:48;;;;;;;;;;;8.10;99.90;;;;;;2067676;28;19925;-74
2024/03/28 05:50:48;;;;;;;;;;;8.10;99.90;;;;;;2067348;28;19917;-74
2024/03/28 05:51:49;;;;;;;;;;;8.10;99.90;;;;;;2063193;28;19914;-74
2024/03/28 05:52:50;;;;;;;;;;;8.10;99.90;;;;;;2075587;28;20004;-75
2024/03/28 05:53:50;;;;;;;;;;;8.00;99.90;;;;;;2075804;28;19936;-82
2024/03/28 05:54:50;;;;;;;;;;;8.10;99.90;;;;;;2067575;28;19944;-80
2024/03/28 05:55:51;;;;;;;;;;;8.00;99.90;;;;;;2062939;28;20217;-80
2024/03/28 05:56:51;;;;;;;;;;;8.10;99.90;;;;;;2076755;28;19913;-81
2024/03/28 05:57:52;;;;;;;;;;;8.00;99.90;;;;;;2070202;28;19917;-81
2024/03/28 05:58:52;;;;;;;;;;;8.10;99.90;;;;;;2067351;28;20400;-80
2024/03/28 05:59:53;;;;;;;;;;;8.10;99.90;;;;;;2058692;28;20192;-81
2024/03/28 06:00:53;;;;;;;;;;;8.10;99.90;;;;;;2059502;28;19918;-79
2024/03/28 06:01:54;;;;;;;;;;;8.10;99.90;;;;;;2080697;28;19913;-81
2024/03/28 06:02:54;;;;;;;;;;;8.10;99.90;;;;;;2076459;28;19991;-81